sensor_id;sensor_type;location;lat;lon;timestamp;P1;durP1;ratioP1;P2;durP2;ratioP2
3447;SDS011;1738;49.500;17.736;2023-09-07T00:02:24;19.07;;;11.30;;
3447;SDS011;1738;49.500;17.736;2023-09-07T00:04:50;16.57;;;11.30;;
3447;SDS011;1738;49.500;17.736;2023-09-07T00:07:16;13.77;;;10.27;;
3447;SDS011;1738;49.500;17.736;2023-09-07T00:09:42;12.50;;;10.73;;
3447;SDS011;1738;49.500;17.736;2023-09-07T00:12:08;13.27;;;11.07;;
3447;SDS011;1738;49.500;17.736;2023-09-07T00:14:33;12.77;;;10.57;;
3447;SDS011;1738;49.500;17.736;2023-09-07T00:16:59;14.87;;;10.80;;
3447;SDS011;1738;49.500;17.736;2023-09-07T00:19:25;15.60;;;10.63;;
3447;SDS011;1738;49.500;17.736;2023-09-07T00:21:51;25.90;;;11.13;;
3447;SDS011;1738;49.500;17.736;2023-09-07T00:24:17;12.10;;;9.27;;
3447;SDS011;1738;49.500;17.736;2023-09-07T00:26:43;14.17;;;10.10;;
3447;SDS011;1738;49.500;17.736;2023-09-07T00:29:08;18.73;;;11.13;;
3447;SDS011;1738;49.500;17.736;2023-09-07T00:31:34;12.57;;;9.27;;
3447;SDS011;1738;49.500;17.736;2023-09-07T00:34:00;19.70;;;10.90;;
3447;SDS011;1738;49.500;17.736;2023-09-07T00:36:26;15.73;;;12.20;;
3447;SDS011;1738;49.500;17.736;2023-09-07T00:38:52;10.87;;;9.53;;
3447;SDS011;1738;49.500;17.736;2023-09-07T00:41:18;14.80;;;11.37;;
3447;SDS011;1738;49.500;17.736;2023-09-07T00:43:43;15.50;;;12.00;;
3447;SDS011;1738;49.500;17.736;2023-09-07T00:46:09;17.17;;;11.70;;
3447;SDS011;1738;49.500;17.736;2023-09-07T00:48:35;15.32;;;11.43;;
3447;SDS011;1738;49.500;17.736;2023-09-07T00:51:01;25.87;;;12.70;;
3447;SDS011;1738;49.500;17.736;2023-09-07T00:53:27;16.53;;;12.60;;
3447;SDS011;1738;49.500;17.736;2023-09-07T00:55:54;14.55;;;12.02;;
3447;SDS011;1738;49.500;17.736;2023-09-07T00:58:19;16.63;;;13.33;;
3447;SDS011;1738;49.500;17.736;2023-09-07T01:00:44;15.32;;;11.95;;
3447;SDS011;1738;49.500;17.736;2023-09-07T01:03:10;18.17;;;13.13;;
3447;SDS011;1738;49.500;17.736;2023-09-07T01:05:43;17.70;;;12.57;;
3447;SDS011;1738;49.500;17.736;2023-09-07T01:08:10;23.03;;;12.97;;
3447;SDS011;1738;49.500;17.736;2023-09-07T01:10:33;21.27;;;14.03;;
3447;SDS011;1738;49.500;17.736;2023-09-07T01:12:59;21.15;;;13.15;;
3447;SDS011;1738;49.500;17.736;2023-09-07T01:15:25;17.60;;;12.90;;
3447;SDS011;1738;49.500;17.736;2023-09-07T01:17:51;16.17;;;13.63;;
3447;SDS011;1738;49.500;17.736;2023-09-07T01:20:17;16.37;;;11.93;;
3447;SDS011;1738;49.500;17.736;2023-09-07T01:22:43;18.50;;;14.07;;
3447;SDS011;1738;49.500;17.736;2023-09-07T01:25:09;17.73;;;14.10;;
3447;SDS011;1738;49.500;17.736;2023-09-07T01:27:34;20.23;;;14.13;;
3447;SDS011;1738;49.500;17.736;2023-09-07T01:30:01;18.57;;;13.90;;
3447;SDS011;1738;49.500;17.736;2023-09-07T01:32:26;21.63;;;12.77;;
3447;SDS011;1738;49.500;17.736;2023-09-07T01:34:54;19.60;;;15.97;;
3447;SDS011;1738;49.500;17.736;2023-09-07T01:37:18;18.80;;;13.07;;
3447;SDS011;1738;49.500;17.736;2023-09-07T01:39:44;17.33;;;12.95;;
3447;SDS011;1738;49.500;17.736;2023-09-07T01:42:09;17.00;;;12.73;;
3447;SDS011;1738;49.500;17.736;2023-09-07T01:44:35;15.20;;;12.33;;
3447;SDS011;1738;49.500;17.736;2023-09-07T01:47:01;17.20;;;12.53;;
3447;SDS011;1738;49.500;17.736;2023-09-07T01:49:27;14.63;;;11.70;;
3447;SDS011;1738;49.500;17.736;2023-09-07T01:51:53;13.43;;;11.30;;
3447;SDS011;1738;49.500;17.736;2023-09-07T01:54:20;15.57;;;11.60;;
3447;SDS011;1738;49.500;17.736;2023-09-07T01:56:45;16.43;;;12.30;;
3447;SDS011;1738;49.500;17.736;2023-09-07T01:59:10;21.07;;;13.70;;
3447;SDS011;1738;49.500;17.736;2023-09-07T02:01:36;14.93;;;10.97;;
3447;SDS011;1738;49.500;17.736;2023-09-07T02:04:02;14.20;;;10.83;;
3447;SDS011;1738;49.500;17.736;2023-09-07T02:06:28;16.43;;;12.27;;
3447;SDS011;1738;49.500;17.736;2023-09-07T02:08:54;21.77;;;12.10;;
3447;SDS011;1738;49.500;17.736;2023-09-07T02:11:20;16.83;;;13.63;;
3447;SDS011;1738;49.500;17.736;2023-09-07T02:13:46;17.23;;;12.63;;
3447;SDS011;1738;49.500;17.736;2023-09-07T02:16:11;15.20;;;13.33;;
3447;SDS011;1738;49.500;17.736;2023-09-07T02:18:37;15.47;;;12.23;;
3447;SDS011;1738;49.500;17.736;2023-09-07T02:21:03;16.23;;;13.00;;
3447;SDS011;1738;49.500;17.736;2023-09-07T02:23:30;16.63;;;12.73;;
3447;SDS011;1738;49.500;17.736;2023-09-07T02:25:55;22.07;;;12.83;;
3447;SDS011;1738;49.500;17.736;2023-09-07T02:28:21;14.47;;;10.03;;
3447;SDS011;1738;49.500;17.736;2023-09-07T02:30:46;18.40;;;12.73;;
3447;SDS011;1738;49.500;17.736;2023-09-07T02:33:12;17.47;;;12.73;;
3447;SDS011;1738;49.500;17.736;2023-09-07T02:35:38;16.70;;;12.17;;
3447;SDS011;1738;49.500;17.736;2023-09-07T02:38:04;16.53;;;12.87;;
3447;SDS011;1738;49.500;17.736;2023-09-07T02:40:30;15.70;;;13.00;;
3447;SDS011;1738;49.500;17.736;2023-09-07T02:42:56;20.07;;;12.03;;
3447;SDS011;1738;49.500;17.736;2023-09-07T02:45:21;16.50;;;12.90;;
3447;SDS011;1738;49.500;17.736;2023-09-07T02:47:47;15.90;;;12.70;;
3447;SDS011;1738;49.500;17.736;2023-09-07T02:50:13;16.07;;;13.13;;
3447;SDS011;1738;49.500;17.736;2023-09-07T02:52:39;19.70;;;12.87;;
3447;SDS011;1738;49.500;17.736;2023-09-07T02:55:05;16.70;;;12.43;;
3447;SDS011;1738;49.500;17.736;2023-09-07T02:57:31;16.03;;;13.60;;
3447;SDS011;1738;49.500;17.736;2023-09-07T02:59:57;16.43;;;12.77;;
3447;SDS011;1738;49.500;17.736;2023-09-07T03:02:23;15.30;;;11.70;;
3447;SDS011;1738;49.500;17.736;2023-09-07T03:04:52;17.07;;;14.20;;
3447;SDS011;1738;49.500;17.736;2023-09-07T03:07:14;18.40;;;12.93;;
3447;SDS011;1738;49.500;17.736;2023-09-07T03:09:40;13.30;;;11.00;;
3447;SDS011;1738;49.500;17.736;2023-09-07T03:12:06;13.33;;;11.60;;
3447;SDS011;1738;49.500;17.736;2023-09-07T03:14:32;16.57;;;12.23;;
3447;SDS011;1738;49.500;17.736;2023-09-07T03:16:58;18.63;;;12.30;;
3447;SDS011;1738;49.500;17.736;2023-09-07T03:19:24;20.60;;;12.40;;
3447;SDS011;1738;49.500;17.736;2023-09-07T03:21:50;20.33;;;11.53;;
3447;SDS011;1738;49.500;17.736;2023-09-07T03:24:15;17.00;;;12.00;;
3447;SDS011;1738;49.500;17.736;2023-09-07T03:26:41;16.20;;;13.27;;
3447;SDS011;1738;49.500;17.736;2023-09-07T03:29:07;21.63;;;13.27;;
3447;SDS011;1738;49.500;17.736;2023-09-07T03:31:33;21.50;;;13.30;;
3447;SDS011;1738;49.500;17.736;2023-09-07T03:33:59;15.10;;;12.50;;
3447;SDS011;1738;49.500;17.736;2023-09-07T03:36:25;18.33;;;13.97;;
3447;SDS011;1738;49.500;17.736;2023-09-07T03:38:51;17.40;;;12.10;;
3447;SDS011;1738;49.500;17.736;2023-09-07T03:41:16;15.90;;;12.20;;
3447;SDS011;1738;49.500;17.736;2023-09-07T03:43:42;16.05;;;12.77;;
3447;SDS011;1738;49.500;17.736;2023-09-07T03:46:08;22.50;;;12.93;;
3447;SDS011;1738;49.500;17.736;2023-09-07T03:48:34;16.13;;;11.93;;
3447;SDS011;1738;49.500;17.736;2023-09-07T03:51:00;22.30;;;12.80;;
3447;SDS011;1738;49.500;17.736;2023-09-07T03:53:26;15.07;;;11.73;;
3447;SDS011;1738;49.500;17.736;2023-09-07T03:55:51;16.60;;;13.00;;
3447;SDS011;1738;49.500;17.736;2023-09-07T03:58:17;18.37;;;12.03;;
3447;SDS011;1738;49.500;17.736;2023-09-07T04:00:43;18.10;;;14.83;;
3447;SDS011;1738;49.500;17.736;2023-09-07T04:03:09;18.53;;;13.20;;
3447;SDS011;1738;49.500;17.736;2023-09-07T04:05:37;16.87;;;12.73;;
3447;SDS011;1738;49.500;17.736;2023-09-07T04:08:03;22.53;;;14.70;;
3447;SDS011;1738;49.500;17.736;2023-09-07T04:10:29;18.95;;;12.98;;
3447;SDS011;1738;49.500;17.736;2023-09-07T04:12:55;19.17;;;13.70;;
3447;SDS011;1738;49.500;17.736;2023-09-07T04:15:20;15.40;;;12.27;;
3447;SDS011;1738;49.500;17.736;2023-09-07T04:17:46;17.00;;;13.20;;
3447;SDS011;1738;49.500;17.736;2023-09-07T04:20:12;17.57;;;13.30;;
3447;SDS011;1738;49.500;17.736;2023-09-07T04:22:39;18.47;;;12.80;;
3447;SDS011;1738;49.500;17.736;2023-09-07T04:25:04;15.67;;;12.80;;
3447;SDS011;1738;49.500;17.736;2023-09-07T04:27:30;16.17;;;12.57;;
3447;SDS011;1738;49.500;17.736;2023-09-07T04:29:56;19.70;;;13.07;;
3447;SDS011;1738;49.500;17.736;2023-09-07T04:32:22;18.03;;;13.60;;
3447;SDS011;1738;49.500;17.736;2023-09-07T04:34:47;21.30;;;14.17;;
3447;SDS011;1738;49.500;17.736;2023-09-07T04:37:13;18.90;;;14.10;;
3447;SDS011;1738;49.500;17.736;2023-09-07T04:39:39;16.43;;;13.60;;
3447;SDS011;1738;49.500;17.736;2023-09-07T04:42:05;16.67;;;13.60;;
3447;SDS011;1738;49.500;17.736;2023-09-07T04:44:31;18.03;;;13.53;;
3447;SDS011;1738;49.500;17.736;2023-09-07T04:46:57;22.40;;;14.00;;
3447;SDS011;1738;49.500;17.736;2023-09-07T04:49:23;19.20;;;12.37;;
3447;SDS011;1738;49.500;17.736;2023-09-07T04:51:48;18.13;;;13.20;;
3447;SDS011;1738;49.500;17.736;2023-09-07T04:54:14;21.63;;;14.27;;
3447;SDS011;1738;49.500;17.736;2023-09-07T04:56:40;17.00;;;12.43;;
3447;SDS011;1738;49.500;17.736;2023-09-07T04:59:06;15.83;;;12.13;;
3447;SDS011;1738;49.500;17.736;2023-09-07T05:01:32;19.67;;;13.37;;
3447;SDS011;1738;49.500;17.736;2023-09-07T05:03:57;16.07;;;13.90;;
3447;SDS011;1738;49.500;17.736;2023-09-07T05:06:24;16.10;;;12.37;;
3447;SDS011;1738;49.500;17.736;2023-09-07T05:08:50;16.73;;;12.87;;
3447;SDS011;1738;49.500;17.736;2023-09-07T05:11:16;14.13;;;12.43;;
3447;SDS011;1738;49.500;17.736;2023-09-07T05:13:42;16.17;;;11.20;;
3447;SDS011;1738;49.500;17.736;2023-09-07T05:16:07;17.20;;;12.80;;
3447;SDS011;1738;49.500;17.736;2023-09-07T05:18:33;15.33;;;11.30;;
3447;SDS011;1738;49.500;17.736;2023-09-07T05:20:59;17.57;;;12.33;;
3447;SDS011;1738;49.500;17.736;2023-09-07T05:23:25;19.27;;;12.47;;
3447;SDS011;1738;49.500;17.736;2023-09-07T05:25:51;18.57;;;12.73;;
3447;SDS011;1738;49.500;17.736;2023-09-07T05:28:18;16.60;;;12.77;;
3447;SDS011;1738;49.500;17.736;2023-09-07T05:30:43;16.30;;;12.43;;
3447;SDS011;1738;49.500;17.736;2023-09-07T05:33:09;14.60;;;11.80;;
3447;SDS011;1738;49.500;17.736;2023-09-07T05:35:35;17.83;;;12.83;;
3447;SDS011;1738;49.500;17.736;2023-09-07T05:38:02;15.93;;;13.03;;
3447;SDS011;1738;49.500;17.736;2023-09-07T05:40:27;18.30;;;13.60;;
3447;SDS011;1738;49.500;17.736;2023-09-07T05:42:53;16.37;;;12.43;;
3447;SDS011;1738;49.500;17.736;2023-09-07T05:45:18;19.10;;;13.57;;
3447;SDS011;1738;49.500;17.736;2023-09-07T05:47:44;16.57;;;12.50;;
3447;SDS011;1738;49.500;17.736;2023-09-07T05:50:10;17.40;;;12.87;;
3447;SDS011;1738;49.500;17.736;2023-09-07T05:52:36;22.10;;;12.10;;
3447;SDS011;1738;49.500;17.736;2023-09-07T05:55:02;16.30;;;12.47;;
3447;SDS011;1738;49.500;17.736;2023-09-07T05:57:28;24.87;;;14.20;;
3447;SDS011;1738;49.500;17.736;2023-09-07T05:59:54;18.57;;;12.23;;
3447;SDS011;1738;49.500;17.736;2023-09-07T06:02:20;26.00;;;14.63;;
3447;SDS011;1738;49.500;17.736;2023-09-07T06:04:45;16.70;;;12.70;;
3447;SDS011;1738;49.500;17.736;2023-09-07T06:07:11;21.20;;;13.60;;
3447;SDS011;1738;49.500;17.736;2023-09-07T06:09:37;19.53;;;14.20;;
3447;SDS011;1738;49.500;17.736;2023-09-07T06:12:03;19.17;;;13.50;;
3447;SDS011;1738;49.500;17.736;2023-09-07T06:14:29;18.60;;;13.87;;
3447;SDS011;1738;49.500;17.736;2023-09-07T06:16:55;19.53;;;13.23;;
3447;SDS011;1738;49.500;17.736;2023-09-07T06:19:21;20.20;;;14.80;;
3447;SDS011;1738;49.500;17.736;2023-09-07T06:21:46;22.67;;;14.03;;
3447;SDS011;1738;49.500;17.736;2023-09-07T06:24:12;21.00;;;15.07;;
3447;SDS011;1738;49.500;17.736;2023-09-07T06:26:38;25.10;;;14.83;;
3447;SDS011;1738;49.500;17.736;2023-09-07T06:29:04;19.20;;;14.53;;
3447;SDS011;1738;49.500;17.736;2023-09-07T06:31:30;24.58;;;16.25;;
3447;SDS011;1738;49.500;17.736;2023-09-07T06:33:56;18.70;;;14.70;;
3447;SDS011;1738;49.500;17.736;2023-09-07T06:36:22;23.10;;;16.97;;
3447;SDS011;1738;49.500;17.736;2023-09-07T06:38:47;21.80;;;15.63;;
3447;SDS011;1738;49.500;17.736;2023-09-07T06:41:13;31.53;;;17.20;;
3447;SDS011;1738;49.500;17.736;2023-09-07T06:43:40;24.23;;;16.30;;
3447;SDS011;1738;49.500;17.736;2023-09-07T06:46:06;21.77;;;15.33;;
3447;SDS011;1738;49.500;17.736;2023-09-07T06:48:31;24.90;;;18.27;;
3447;SDS011;1738;49.500;17.736;2023-09-07T06:51:00;22.80;;;15.93;;
3447;SDS011;1738;49.500;17.736;2023-09-07T06:53:23;23.97;;;16.00;;
3447;SDS011;1738;49.500;17.736;2023-09-07T06:55:56;21.15;;;16.30;;
3447;SDS011;1738;49.500;17.736;2023-09-07T06:58:14;20.33;;;15.23;;
3447;SDS011;1738;49.500;17.736;2023-09-07T07:00:40;25.70;;;15.73;;
3447;SDS011;1738;49.500;17.736;2023-09-07T07:03:06;20.80;;;15.40;;
3447;SDS011;1738;49.500;17.736;2023-09-07T07:05:32;22.93;;;15.73;;
3447;SDS011;1738;49.500;17.736;2023-09-07T07:07:58;22.13;;;16.47;;
3447;SDS011;1738;49.500;17.736;2023-09-07T07:10:24;26.00;;;17.10;;
3447;SDS011;1738;49.500;17.736;2023-09-07T07:12:49;30.73;;;17.10;;
3447;SDS011;1738;49.500;17.736;2023-09-07T07:15:15;26.67;;;18.87;;
3447;SDS011;1738;49.500;17.736;2023-09-07T07:17:41;20.80;;;15.70;;
3447;SDS011;1738;49.500;17.736;2023-09-07T07:20:07;19.00;;;14.30;;
3447;SDS011;1738;49.500;17.736;2023-09-07T07:22:33;22.83;;;15.57;;
3447;SDS011;1738;49.500;17.736;2023-09-07T07:24:59;26.70;;;17.00;;
3447;SDS011;1738;49.500;17.736;2023-09-07T07:27:25;24.07;;;15.57;;
3447;SDS011;1738;49.500;17.736;2023-09-07T07:29:51;17.57;;;14.20;;
3447;SDS011;1738;49.500;17.736;2023-09-07T07:32:17;22.30;;;15.70;;
3447;SDS011;1738;49.500;17.736;2023-09-07T07:34:43;27.13;;;16.40;;
3447;SDS011;1738;49.500;17.736;2023-09-07T07:37:08;20.83;;;16.07;;
3447;SDS011;1738;49.500;17.736;2023-09-07T07:39:34;21.33;;;14.40;;
3447;SDS011;1738;49.500;17.736;2023-09-07T07:42:00;25.53;;;15.73;;
3447;SDS011;1738;49.500;17.736;2023-09-07T07:44:26;20.17;;;15.80;;
3447;SDS011;1738;49.500;17.736;2023-09-07T07:46:52;18.53;;;11.67;;
3447;SDS011;1738;49.500;17.736;2023-09-07T07:49:18;26.33;;;13.87;;
3447;SDS011;1738;49.500;17.736;2023-09-07T07:51:43;19.52;;;13.75;;
3447;SDS011;1738;49.500;17.736;2023-09-07T07:54:10;20.60;;;14.32;;
3447;SDS011;1738;49.500;17.736;2023-09-07T07:56:36;21.33;;;14.37;;
3447;SDS011;1738;49.500;17.736;2023-09-07T07:59:01;18.97;;;12.73;;
3447;SDS011;1738;49.500;17.736;2023-09-07T08:01:27;15.27;;;12.10;;
3447;SDS011;1738;49.500;17.736;2023-09-07T08:03:53;17.00;;;12.23;;
3447;SDS011;1738;49.500;17.736;2023-09-07T08:06:19;17.80;;;12.80;;
3447;SDS011;1738;49.500;17.736;2023-09-07T08:08:45;18.60;;;14.20;;
3447;SDS011;1738;49.500;17.736;2023-09-07T08:11:11;19.20;;;13.87;;
3447;SDS011;1738;49.500;17.736;2023-09-07T08:13:37;18.53;;;14.37;;
3447;SDS011;1738;49.500;17.736;2023-09-07T08:16:03;28.43;;;17.53;;
3447;SDS011;1738;49.500;17.736;2023-09-07T08:18:29;20.17;;;12.93;;
3447;SDS011;1738;49.500;17.736;2023-09-07T08:20:54;23.30;;;15.03;;
3447;SDS011;1738;49.500;17.736;2023-09-07T08:23:21;40.53;;;33.03;;
3447;SDS011;1738;49.500;17.736;2023-09-07T08:25:46;21.07;;;16.57;;
3447;SDS011;1738;49.500;17.736;2023-09-07T08:28:12;27.50;;;22.90;;
3447;SDS011;1738;49.500;17.736;2023-09-07T08:30:38;24.40;;;17.90;;
3447;SDS011;1738;49.500;17.736;2023-09-07T08:33:04;26.47;;;15.83;;
3447;SDS011;1738;49.500;17.736;2023-09-07T08:35:30;15.20;;;11.93;;
3447;SDS011;1738;49.500;17.736;2023-09-07T08:37:55;21.23;;;17.00;;
3447;SDS011;1738;49.500;17.736;2023-09-07T08:40:21;17.43;;;13.03;;
3447;SDS011;1738;49.500;17.736;2023-09-07T08:42:47;19.53;;;11.70;;
3447;SDS011;1738;49.500;17.736;2023-09-07T08:45:13;13.03;;;10.07;;
3447;SDS011;1738;49.500;17.736;2023-09-07T08:47:39;16.50;;;11.10;;
3447;SDS011;1738;49.500;17.736;2023-09-07T08:50:06;15.05;;;10.52;;
3447;SDS011;1738;49.500;17.736;2023-09-07T08:52:32;17.13;;;11.00;;
3447;SDS011;1738;49.500;17.736;2023-09-07T08:54:57;13.37;;;9.43;;
3447;SDS011;1738;49.500;17.736;2023-09-07T08:57:24;13.57;;;10.07;;
3447;SDS011;1738;49.500;17.736;2023-09-07T08:59:49;12.03;;;9.83;;
3447;SDS011;1738;49.500;17.736;2023-09-07T09:02:15;12.57;;;9.37;;
3447;SDS011;1738;49.500;17.736;2023-09-07T09:04:41;14.50;;;9.90;;
3447;SDS011;1738;49.500;17.736;2023-09-07T09:07:07;11.80;;;9.40;;
3447;SDS011;1738;49.500;17.736;2023-09-07T09:09:32;13.40;;;8.83;;
3447;SDS011;1738;49.500;17.736;2023-09-07T09:14:30;14.40;;;8.87;;
3447;SDS011;1738;49.500;17.736;2023-09-07T09:16:56;13.95;;;10.82;;
3447;SDS011;1738;49.500;17.736;2023-09-07T09:19:30;16.10;;;10.00;;
3447;SDS011;1738;49.500;17.736;2023-09-07T09:21:47;12.17;;;9.40;;
3447;SDS011;1738;49.500;17.736;2023-09-07T09:24:13;12.53;;;9.63;;
3447;SDS011;1738;49.500;17.736;2023-09-07T09:26:39;9.93;;;8.73;;
3447;SDS011;1738;49.500;17.736;2023-09-07T09:29:05;15.10;;;10.53;;
3447;SDS011;1738;49.500;17.736;2023-09-07T09:31:31;12.07;;;9.20;;
3447;SDS011;1738;49.500;17.736;2023-09-07T09:33:57;10.00;;;8.87;;
3447;SDS011;1738;49.500;17.736;2023-09-07T09:36:22;9.60;;;8.70;;
3447;SDS011;1738;49.500;17.736;2023-09-07T09:38:50;15.80;;;9.80;;
3447;SDS011;1738;49.500;17.736;2023-09-07T09:41:15;12.97;;;8.83;;
3447;SDS011;1738;49.500;17.736;2023-09-07T09:43:41;14.20;;;9.20;;
3447;SDS011;1738;49.500;17.736;2023-09-07T09:46:06;15.57;;;8.87;;
3447;SDS011;1738;49.500;17.736;2023-09-07T09:48:32;12.93;;;8.77;;
3447;SDS011;1738;49.500;17.736;2023-09-07T09:50:58;14.73;;;9.70;;
3447;SDS011;1738;49.500;17.736;2023-09-07T09:53:24;15.33;;;9.53;;
3447;SDS011;1738;49.500;17.736;2023-09-07T09:55:50;12.27;;;8.27;;
3447;SDS011;1738;49.500;17.736;2023-09-07T09:58:16;9.23;;;8.10;;
3447;SDS011;1738;49.500;17.736;2023-09-07T10:00:43;13.27;;;8.50;;
3447;SDS011;1738;49.500;17.736;2023-09-07T10:03:08;11.57;;;7.72;;
3447;SDS011;1738;49.500;17.736;2023-09-07T10:05:34;10.50;;;8.50;;
3447;SDS011;1738;49.500;17.736;2023-09-07T10:08:01;10.80;;;7.70;;
3447;SDS011;1738;49.500;17.736;2023-09-07T10:10:26;16.67;;;7.73;;
3447;SDS011;1738;49.500;17.736;2023-09-07T10:12:52;10.03;;;7.30;;
3447;SDS011;1738;49.500;17.736;2023-09-07T10:15:21;15.73;;;8.27;;
3447;SDS011;1738;49.500;17.736;2023-09-07T10:17:46;12.93;;;7.90;;
3447;SDS011;1738;49.500;17.736;2023-09-07T10:20:12;11.80;;;7.93;;
3447;SDS011;1738;49.500;17.736;2023-09-07T10:22:38;13.53;;;7.67;;
3447;SDS011;1738;49.500;17.736;2023-09-07T10:25:04;11.33;;;6.20;;
3447;SDS011;1738;49.500;17.736;2023-09-07T10:30:01;10.93;;;7.40;;
3447;SDS011;1738;49.500;17.736;2023-09-07T10:32:37;10.63;;;7.80;;
3447;SDS011;1738;49.500;17.736;2023-09-07T10:34:53;15.73;;;7.53;;
3447;SDS011;1738;49.500;17.736;2023-09-07T10:37:19;9.40;;;7.00;;
3447;SDS011;1738;49.500;17.736;2023-09-07T10:39:45;10.13;;;7.30;;
3447;SDS011;1738;49.500;17.736;2023-09-07T10:44:42;10.80;;;7.87;;
3447;SDS011;1738;49.500;17.736;2023-09-07T10:47:08;10.20;;;6.90;;
3447;SDS011;1738;49.500;17.736;2023-09-07T10:49:34;11.37;;;7.50;;
3447;SDS011;1738;49.500;17.736;2023-09-07T10:52:00;10.03;;;7.37;;
3447;SDS011;1738;49.500;17.736;2023-09-07T10:54:25;11.90;;;8.07;;
3447;SDS011;1738;49.500;17.736;2023-09-07T10:56:51;9.53;;;8.30;;
3447;SDS011;1738;49.500;17.736;2023-09-07T10:59:17;10.07;;;8.00;;
3447;SDS011;1738;49.500;17.736;2023-09-07T11:01:43;10.73;;;7.30;;
3447;SDS011;1738;49.500;17.736;2023-09-07T11:04:09;11.23;;;6.90;;
3447;SDS011;1738;49.500;17.736;2023-09-07T11:06:35;12.10;;;7.30;;
3447;SDS011;1738;49.500;17.736;2023-09-07T11:09:01;10.30;;;8.67;;
3447;SDS011;1738;49.500;17.736;2023-09-07T11:11:26;8.60;;;7.40;;
3447;SDS011;1738;49.500;17.736;2023-09-07T11:13:52;9.93;;;6.87;;
3447;SDS011;1738;49.500;17.736;2023-09-07T11:16:18;12.37;;;7.40;;
3447;SDS011;1738;49.500;17.736;2023-09-07T11:18:45;9.87;;;8.13;;
3447;SDS011;1738;49.500;17.736;2023-09-07T11:21:10;13.30;;;7.97;;
3447;SDS011;1738;49.500;17.736;2023-09-07T11:23:37;10.38;;;7.47;;
3447;SDS011;1738;49.500;17.736;2023-09-07T11:26:04;14.63;;;9.67;;
3447;SDS011;1738;49.500;17.736;2023-09-07T11:28:30;11.20;;;9.00;;
3447;SDS011;1738;49.500;17.736;2023-09-07T11:30:55;14.00;;;10.20;;
3447;SDS011;1738;49.500;17.736;2023-09-07T11:33:22;11.73;;;8.90;;
3447;SDS011;1738;49.500;17.736;2023-09-07T11:35:47;13.73;;;10.00;;
3447;SDS011;1738;49.500;17.736;2023-09-07T11:38:14;12.37;;;9.40;;
3447;SDS011;1738;49.500;17.736;2023-09-07T11:40:39;14.93;;;11.17;;
3447;SDS011;1738;49.500;17.736;2023-09-07T11:43:05;11.40;;;9.63;;
3447;SDS011;1738;49.500;17.736;2023-09-07T11:45:31;12.93;;;9.30;;
3447;SDS011;1738;49.500;17.736;2023-09-07T11:47:56;12.90;;;9.63;;
3447;SDS011;1738;49.500;17.736;2023-09-07T11:50:23;14.87;;;8.83;;
3447;SDS011;1738;49.500;17.736;2023-09-07T11:52:48;15.97;;;9.60;;
3447;SDS011;1738;49.500;17.736;2023-09-07T11:55:14;12.80;;;10.57;;
3447;SDS011;1738;49.500;17.736;2023-09-07T11:57:40;11.77;;;9.50;;
3447;SDS011;1738;49.500;17.736;2023-09-07T12:00:07;14.77;;;9.37;;
3447;SDS011;1738;49.500;17.736;2023-09-07T12:02:32;21.27;;;11.03;;
3447;SDS011;1738;49.500;17.736;2023-09-07T12:04:58;14.20;;;9.63;;
3447;SDS011;1738;49.500;17.736;2023-09-07T12:07:24;10.50;;;8.20;;
3447;SDS011;1738;49.500;17.736;2023-09-07T12:09:50;10.63;;;8.20;;
3447;SDS011;1738;49.500;17.736;2023-09-07T12:12:16;12.17;;;8.70;;
3447;SDS011;1738;49.500;17.736;2023-09-07T12:14:42;10.70;;;7.90;;
3447;SDS011;1738;49.500;17.736;2023-09-07T12:17:08;10.47;;;8.13;;
3447;SDS011;1738;49.500;17.736;2023-09-07T12:19:33;17.03;;;9.40;;
3447;SDS011;1738;49.500;17.736;2023-09-07T12:21:59;14.67;;;8.63;;
3447;SDS011;1738;49.500;17.736;2023-09-07T12:24:25;11.30;;;8.90;;
3447;SDS011;1738;49.500;17.736;2023-09-07T12:26:51;13.67;;;8.03;;
3447;SDS011;1738;49.500;17.736;2023-09-07T12:29:17;11.60;;;7.77;;
3447;SDS011;1738;49.500;17.736;2023-09-07T12:31:43;14.50;;;8.63;;
3447;SDS011;1738;49.500;17.736;2023-09-07T12:34:09;14.77;;;10.20;;
3447;SDS011;1738;49.500;17.736;2023-09-07T12:36:34;14.07;;;9.93;;
3447;SDS011;1738;49.500;17.736;2023-09-07T12:39:00;13.10;;;9.23;;
3447;SDS011;1738;49.500;17.736;2023-09-07T12:41:28;10.77;;;9.37;;
3447;SDS011;1738;49.500;17.736;2023-09-07T12:43:53;16.33;;;9.07;;
3447;SDS011;1738;49.500;17.736;2023-09-07T12:46:19;11.20;;;9.50;;
3447;SDS011;1738;49.500;17.736;2023-09-07T12:48:45;13.13;;;7.50;;
3447;SDS011;1738;49.500;17.736;2023-09-07T12:51:10;13.37;;;7.83;;
3447;SDS011;1738;49.500;17.736;2023-09-07T12:53:36;12.43;;;8.47;;
3447;SDS011;1738;49.500;17.736;2023-09-07T12:56:02;12.90;;;8.97;;
3447;SDS011;1738;49.500;17.736;2023-09-07T12:58:28;12.47;;;8.40;;
3447;SDS011;1738;49.500;17.736;2023-09-07T13:00:54;9.63;;;6.90;;
3447;SDS011;1738;49.500;17.736;2023-09-07T13:03:20;10.00;;;6.13;;
3447;SDS011;1738;49.500;17.736;2023-09-07T13:05:46;8.73;;;6.63;;
3447;SDS011;1738;49.500;17.736;2023-09-07T13:08:11;13.00;;;6.93;;
3447;SDS011;1738;49.500;17.736;2023-09-07T13:10:37;9.03;;;5.90;;
3447;SDS011;1738;49.500;17.736;2023-09-07T13:13:03;9.87;;;7.23;;
3447;SDS011;1738;49.500;17.736;2023-09-07T13:15:29;10.00;;;6.83;;
3447;SDS011;1738;49.500;17.736;2023-09-07T13:17:55;7.87;;;6.37;;
3447;SDS011;1738;49.500;17.736;2023-09-07T13:20:21;12.00;;;6.70;;
3447;SDS011;1738;49.500;17.736;2023-09-07T13:22:46;10.60;;;7.10;;
3447;SDS011;1738;49.500;17.736;2023-09-07T13:25:12;9.40;;;7.20;;
3447;SDS011;1738;49.500;17.736;2023-09-07T13:27:38;9.67;;;7.07;;
3447;SDS011;1738;49.500;17.736;2023-09-07T13:30:04;11.90;;;7.50;;
3447;SDS011;1738;49.500;17.736;2023-09-07T13:32:31;11.53;;;7.60;;
3447;SDS011;1738;49.500;17.736;2023-09-07T13:34:56;8.50;;;6.50;;
3447;SDS011;1738;49.500;17.736;2023-09-07T13:37:22;11.37;;;7.63;;
3447;SDS011;1738;49.500;17.736;2023-09-07T13:39:48;10.60;;;7.20;;
3447;SDS011;1738;49.500;17.736;2023-09-07T13:42:14;12.80;;;7.37;;
3447;SDS011;1738;49.500;17.736;2023-09-07T13:44:40;9.73;;;6.87;;
3447;SDS011;1738;49.500;17.736;2023-09-07T13:47:06;8.38;;;6.05;;
3447;SDS011;1738;49.500;17.736;2023-09-07T13:49:31;10.50;;;5.90;;
3447;SDS011;1738;49.500;17.736;2023-09-07T13:51:57;7.73;;;6.47;;
3447;SDS011;1738;49.500;17.736;2023-09-07T13:54:23;10.10;;;6.53;;
3447;SDS011;1738;49.500;17.736;2023-09-07T13:56:49;10.33;;;6.90;;
3447;SDS011;1738;49.500;17.736;2023-09-07T13:59:15;8.23;;;6.43;;
3447;SDS011;1738;49.500;17.736;2023-09-07T14:01:41;14.50;;;7.00;;
3447;SDS011;1738;49.500;17.736;2023-09-07T14:04:06;15.00;;;6.90;;
3447;SDS011;1738;49.500;17.736;2023-09-07T14:06:32;7.87;;;5.20;;
3447;SDS011;1738;49.500;17.736;2023-09-07T14:08:58;7.27;;;5.03;;
3447;SDS011;1738;49.500;17.736;2023-09-07T14:11:24;7.20;;;5.20;;
3447;SDS011;1738;49.500;17.736;2023-09-07T14:13:50;9.70;;;6.10;;
3447;SDS011;1738;49.500;17.736;2023-09-07T14:16:17;6.87;;;5.27;;
3447;SDS011;1738;49.500;17.736;2023-09-07T14:18:42;8.37;;;5.50;;
3447;SDS011;1738;49.500;17.736;2023-09-07T14:21:08;8.30;;;6.27;;
3447;SDS011;1738;49.500;17.736;2023-09-07T14:23:34;9.57;;;7.23;;
3447;SDS011;1738;49.500;17.736;2023-09-07T14:26:00;12.87;;;6.17;;
3447;SDS011;1738;49.500;17.736;2023-09-07T14:28:26;9.73;;;6.17;;
3447;SDS011;1738;49.500;17.736;2023-09-07T14:30:52;9.63;;;5.80;;
3447;SDS011;1738;49.500;17.736;2023-09-07T14:33:18;9.13;;;5.30;;
3447;SDS011;1738;49.500;17.736;2023-09-07T14:35:43;8.00;;;5.60;;
3447;SDS011;1738;49.500;17.736;2023-09-07T14:38:09;7.77;;;6.40;;
3447;SDS011;1738;49.500;17.736;2023-09-07T14:40:35;7.90;;;5.80;;